createdAt,value
2022-08-09T00:00:07.022Z,97007.75
2022-08-09T00:02:36.108Z,97009.09
2022-08-09T00:06:17.348Z,97008.38
2022-08-09T00:07:54.283Z,97006.50
2022-08-09T00:10:24.470Z,97015.66
2022-08-09T00:12:53.360Z,97012.50
2022-08-09T00:15:26.739Z,97014.19
2022-08-09T00:18:11.478Z,97023.56
2022-08-09T00:20:42.192Z,97026.59
2022-08-09T00:23:55.774Z,97028.28
2022-08-09T00:26:14.510Z,97011.50
2022-08-09T00:28:52.303Z,97016.78
2022-08-09T00:31:55.711Z,97012.16
2022-08-09T00:34:10.795Z,97051.81
2022-08-09T00:36:39.959Z,97009.47
2022-08-09T00:40:09.099Z,97009.59
2022-08-09T00:44:11.595Z,97015.50
2022-08-09T00:44:47.717Z,97014.59
2022-08-09T00:47:15.870Z,97019.34
2022-08-09T00:49:54.687Z,97010.13
2022-08-09T00:52:28.148Z,97012.97
2022-08-09T00:55:00.988Z,97007.56
2022-08-09T00:57:34.411Z,97014.06
2022-08-09T01:00:05.447Z,97015.00
2022-08-09T01:02:53.388Z,97012.31
2022-08-09T01:05:51.434Z,97014.84
2022-08-09T01:08:12.996Z,97012.00
2022-08-09T01:10:53.134Z,97011.81
2022-08-09T01:13:23.638Z,97012.75
2022-08-09T01:15:59.243Z,97012.81
2022-08-09T01:18:31.455Z,97017.88
2022-08-09T01:21:04.371Z,97021.38
2022-08-09T01:24:02.524Z,97018.81
2022-08-09T01:26:37.279Z,97013.31
2022-08-09T01:29:06.354Z,97012.97
2022-08-09T01:32:30.623Z,97015.34
2022-08-09T01:34:22.330Z,97022.66
2022-08-09T01:36:50.002Z,97020.75
2022-08-09T01:39:17.780Z,97019.16
2022-08-09T01:41:53.500Z,97024.53
2022-08-09T01:44:24.322Z,97019.47
2022-08-09T01:46:53.093Z,97027.06
2022-08-09T01:49:24.323Z,97027.56
2022-08-09T01:51:53.742Z,97020.72
2022-08-09T01:54:22.859Z,97019.47
2022-08-09T01:56:52.495Z,97034.38
2022-08-09T01:59:24.808Z,97035.63
2022-08-09T02:02:01.237Z,97022.66
2022-08-09T02:04:30.105Z,97037.88
2022-08-09T02:07:15.380Z,97036.44
2022-08-09T02:09:59.272Z,97037.25
2022-08-09T02:12:30.633Z,97039.84
2022-08-09T02:14:58.680Z,97040.09
2022-08-09T02:18:01.734Z,97047.84
2022-08-09T02:20:26.408Z,97056.59
2022-08-09T02:23:01.387Z,97053.81
2022-08-09T02:25:30.527Z,97052.44
2022-08-09T02:28:03.859Z,97052.13
2022-08-09T02:30:34.109Z,97058.16
2022-08-09T02:33:01.795Z,97054.50
2022-08-09T02:36:03.294Z,97047.88
2022-08-09T02:38:21.991Z,97054.88
2022-08-09T02:41:00.974Z,97050.59
2022-08-09T02:43:54.031Z,97048.88
2022-08-09T02:46:20.312Z,97045.28
2022-08-09T02:48:48.326Z,97051.31
2022-08-09T02:51:19.890Z,97050.06
2022-08-09T02:54:00.507Z,97046.41
2022-08-09T02:56:29.021Z,97040.44
2022-08-09T02:58:59.928Z,97037.94
2022-08-09T03:01:29.537Z,97041.69
2022-08-09T03:04:17.806Z,97042.03
2022-08-09T03:06:50.636Z,97044.22
2022-08-09T03:09:21.966Z,97039.41
2022-08-09T03:12:05.743Z,97052.72
2022-08-09T03:14:41.102Z,97045.16
2022-08-09T03:17:16.643Z,97044.81
2022-08-09T03:20:02.706Z,97043.63
2022-08-09T03:22:31.896Z,97046.50
2022-08-09T03:25:06.245Z,97051.41
2022-08-09T03:27:50.565Z,97048.00
2022-08-09T03:30:30.235Z,97047.09
2022-08-09T03:33:11.065Z,97046.59
2022-08-09T03:36:13.143Z,97061.94
2022-08-09T03:38:33.608Z,97049.06
2022-08-09T03:41:03.697Z,97047.28
2022-08-09T03:43:33.293Z,97059.91
2022-08-09T03:46:13.566Z,97062.38
2022-08-09T03:48:50.951Z,97061.84
2022-08-09T03:51:55.185Z,97061.06
2022-08-09T03:54:10.920Z,97065.47
2022-08-09T03:56:41.115Z,97062.22
2022-08-09T03:59:13.505Z,97060.66
2022-08-09T04:01:46.869Z,97051.94
2022-08-09T04:04:15.334Z,97060.88
2022-08-09T04:06:49.311Z,97063.56
2022-08-09T04:09:47.758Z,97064.31
2022-08-09T04:12:30.127Z,97068.19
2022-08-09T04:15:00.963Z,97066.28
2022-08-09T04:17:32.406Z,97068.09
2022-08-09T04:20:02.708Z,97076.91
2022-08-09T04:22:31.890Z,97075.00
2022-08-09T04:25:03.098Z,97075.63
2022-08-09T04:27:32.870Z,97070.88
2022-08-09T04:30:08.530Z,97084.56
2022-08-09T04:32:39.032Z,97086.63
2022-08-09T04:35:14.093Z,97089.66
2022-08-09T04:37:46.255Z,97094.00
2022-08-09T04:40:46.686Z,97095.50
2022-08-09T04:43:17.914Z,97094.91
2022-08-09T04:45:53.044Z,97063.09
2022-08-09T04:48:23.842Z,96868.03
2022-08-09T04:51:03.222Z,97109.34
2022-08-09T04:53:31.389Z,97115.91
2022-08-09T04:56:01.547Z,97115.06
2022-08-09T04:58:32.924Z,97106.97
2022-08-09T05:01:01.940Z,97112.06
2022-08-09T05:03:43.197Z,96985.56
2022-08-09T05:06:11.846Z,97117.41
2022-08-09T05:08:49.897Z,97112.88
2022-08-09T05:11:17.640Z,97115.97
2022-08-09T05:13:49.358Z,97111.75
2022-08-09T05:16:17.895Z,97110.06
2022-08-09T05:18:57.533Z,97112.38
2022-08-09T05:21:30.499Z,97115.88
2022-08-09T05:24:05.455Z,97104.13
2022-08-09T05:26:45.216Z,97113.41
2022-08-09T05:29:21.581Z,97115.84
2022-08-09T05:31:56.651Z,97113.47
2022-08-09T05:34:30.631Z,97120.50
2022-08-09T05:37:11.318Z,97116.13
2022-08-09T05:39:43.627Z,97123.28
2022-08-09T05:42:17.247Z,97119.72
2022-08-09T05:44:50.669Z,97113.75
2022-08-09T05:47:19.629Z,97121.53
2022-08-09T05:50:23.533Z,97124.84
2022-08-09T05:52:44.393Z,97129.59
2022-08-09T05:55:21.833Z,97125.91
2022-08-09T05:57:58.557Z,97124.72
2022-08-09T06:00:29.013Z,97125.53
2022-08-09T06:02:57.750Z,97127.63
2022-08-09T06:05:54.687Z,97130.31
2022-08-09T06:08:24.901Z,97138.16
2022-08-09T06:10:53.735Z,97131.03
2022-08-09T06:13:21.502Z,97140.66
2022-08-09T06:15:53.244Z,97142.34
2022-08-09T06:18:24.768Z,97146.41
2022-08-09T06:20:57.599Z,97150.22
2022-08-09T06:23:55.406Z,97149.28
2022-08-09T06:26:20.500Z,97157.38
2022-08-09T06:28:49.684Z,97156.81
2022-08-09T06:31:31.184Z,97160.94
2022-08-09T06:34:07.869Z,97162.25
2022-08-09T06:36:42.883Z,97164.03
2022-08-09T06:39:12.662Z,97161.56
2022-08-09T06:42:08.798Z,97169.16
2022-08-09T06:44:29.134Z,97170.50
2022-08-09T06:46:57.734Z,97165.88
2022-08-09T06:49:45.132Z,97159.22
2022-08-09T06:52:18.014Z,96956.31
2022-08-09T06:54:46.000Z,97170.91
2022-08-09T06:57:14.110Z,97169.63
2022-08-09T07:00:49.342Z,97191.34
2022-08-09T07:02:34.436Z,97197.50
2022-08-09T07:05:05.636Z,97180.28
2022-08-09T07:07:59.681Z,97177.06
2022-08-09T07:10:32.379Z,97177.28
2022-08-09T07:13:18.721Z,97184.28
2022-08-09T07:15:54.014Z,97186.00
2022-08-09T07:18:43.096Z,96995.81
2022-08-09T07:21:14.151Z,97182.47
2022-08-09T07:23:46.665Z,97190.34
2022-08-09T07:26:27.499Z,97190.75
2022-08-09T07:29:08.424Z,97196.16
2022-08-09T07:31:45.497Z,97202.44
2022-08-09T07:34:20.811Z,97193.50
2022-08-09T07:36:54.114Z,97192.63
2022-08-09T07:39:40.251Z,97203.88
2022-08-09T07:42:12.192Z,97199.13
2022-08-09T07:44:51.813Z,97198.69
2022-08-09T07:47:23.216Z,97207.69
2022-08-09T07:50:05.391Z,97200.31
2022-08-09T07:52:36.663Z,97210.78
2022-08-09T07:55:08.765Z,97202.84
2022-08-09T07:57:37.536Z,97210.19
2022-08-09T08:00:20.326Z,97210.47
2022-08-09T08:03:01.998Z,97203.63
2022-08-09T08:05:54.491Z,97203.13
2022-08-09T08:09:02.469Z,97202.03
2022-08-09T08:12:11.194Z,97209.03
2022-08-09T08:14:04.614Z,97206.34
2022-08-09T08:16:34.678Z,97207.59
2022-08-09T08:19:02.823Z,97208.13
2022-08-09T08:21:32.759Z,97203.63
2022-08-09T08:24:01.365Z,97210.19
2022-08-09T08:26:47.479Z,97208.31
2022-08-09T08:29:28.643Z,97204.44
2022-08-09T08:32:07.842Z,97210.84
2022-08-09T08:34:40.518Z,97214.19
2022-08-09T08:37:14.339Z,97210.38
2022-08-09T08:39:50.538Z,97211.75
2022-08-09T08:42:24.216Z,97201.44
2022-08-09T08:45:00.483Z,97203.69
2022-08-09T08:47:42.769Z,97216.34
2022-08-09T08:50:18.085Z,97208.22
2022-08-09T08:52:59.564Z,97216.06
2022-08-09T08:55:28.623Z,97220.56
2022-08-09T08:58:01.444Z,97218.53
2022-08-09T09:00:34.694Z,97223.56
2022-08-09T09:03:12.461Z,97218.63
2022-08-09T09:06:03.082Z,97226.69
2022-08-09T09:08:40.428Z,97208.78
2022-08-09T09:11:17.745Z,97208.69
2022-08-09T09:13:57.351Z,97207.09
2022-08-09T09:16:31.033Z,97210.03
2022-08-09T09:22:03.957Z,97200.97
2022-08-09T09:24:34.688Z,97214.09
2022-08-09T09:27:05.230Z,97209.38
2022-08-09T09:29:57.971Z,97205.94
2022-08-09T09:32:32.273Z,97205.28
2022-08-09T09:35:09.279Z,97210.47
2022-08-09T09:37:40.409Z,97200.53
2022-08-09T09:40:09.328Z,97199.22
2022-08-09T09:42:37.876Z,97196.72
2022-08-09T09:45:09.375Z,97197.66
2022-08-09T09:47:56.278Z,97196.47
2022-08-09T09:50:42.196Z,97197.09
2022-08-09T09:53:18.126Z,97186.81
2022-08-09T09:56:04.282Z,97193.31
2022-08-09T09:58:47.893Z,97182.75
2022-08-09T10:01:22.070Z,97015.34
2022-08-09T10:04:08.876Z,97186.09
2022-08-09T10:06:42.613Z,97183.22
2022-08-09T10:09:22.454Z,97176.78
2022-08-09T10:12:14.761Z,97183.94
2022-08-09T10:14:53.269Z,97196.09
2022-08-09T10:17:51.071Z,97183.88
2022-08-09T10:20:27.789Z,97191.50
2022-08-09T10:23:11.171Z,97183.38
2022-08-09T10:26:07.110Z,97182.75
2022-08-09T10:28:30.896Z,97174.56
2022-08-09T10:34:10.710Z,97182.16
2022-08-09T10:36:45.129Z,97172.09
2022-08-09T10:39:18.247Z,97168.28
2022-08-09T10:41:48.168Z,97174.69
2022-08-09T10:44:18.215Z,97165.25
2022-08-09T10:47:20.472Z,97159.00
2022-08-09T10:50:00.130Z,97166.69
2022-08-09T10:52:42.621Z,97158.38
2022-08-09T10:55:25.438Z,97164.22
2022-08-09T10:57:55.632Z,97169.34
2022-08-09T11:00:41.710Z,97163.84
2022-08-09T11:03:51.443Z,97167.41
2022-08-09T11:06:22.822Z,97177.28
2022-08-09T11:08:59.733Z,97168.59
2022-08-09T11:12:05.196Z,97162.25
2022-08-09T11:14:35.454Z,97160.97
2022-08-09T11:17:09.199Z,97162.88
2022-08-09T11:20:10.043Z,97170.34
2022-08-09T11:23:14.460Z,96973.44
2022-08-09T11:25:48.153Z,96991.94
2022-08-09T11:28:38.640Z,97160.94
2022-08-09T11:31:43.113Z,97162.53
2022-08-09T11:34:12.013Z,97151.22
2022-08-09T11:36:42.907Z,97162.72
2022-08-09T11:39:14.371Z,97184.59
2022-08-09T11:41:46.763Z,97153.28
2022-08-09T11:44:16.947Z,97152.44
2022-08-09T11:46:54.320Z,97140.44
2022-08-09T11:49:42.859Z,97138.84
2022-08-09T11:53:03.372Z,97135.19
2022-08-09T11:55:34.985Z,97126.34
2022-08-09T11:58:37.097Z,96967.16
2022-08-09T12:01:08.797Z,97128.78
2022-08-09T12:03:57.552Z,97131.69
2022-08-09T12:06:32.380Z,97135.00
2022-08-09T12:09:03.751Z,97118.00
2022-08-09T12:11:44.683Z,97122.38
2022-08-09T12:14:36.910Z,97123.22
2022-08-09T12:17:27.877Z,97135.94
2022-08-09T12:20:16.771Z,97135.16
2022-08-09T12:22:50.598Z,97130.19
2022-08-09T12:25:31.947Z,97150.00
2022-08-09T12:29:13.383Z,97159.09
2022-08-09T12:31:00.216Z,97123.97
2022-08-09T12:33:35.572Z,97129.19
2022-08-09T12:36:31.387Z,97139.19
2022-08-09T12:39:00.658Z,97127.13
2022-08-09T12:41:29.341Z,97126.00
2022-08-09T12:44:06.555Z,97121.09
2022-08-09T12:46:36.176Z,97118.22
2022-08-09T12:49:09.998Z,97122.72
2022-08-09T12:52:00.150Z,97111.19
2022-08-09T12:54:26.775Z,97118.72
2022-08-09T12:56:54.854Z,97111.03
2022-08-09T12:59:23.533Z,97108.25
2022-08-09T13:02:04.549Z,97102.06
2022-08-09T13:04:40.136Z,97103.81
2022-08-09T13:07:11.652Z,97090.16
2022-08-09T13:09:55.951Z,97104.75
2022-08-09T13:12:29.287Z,97103.69
2022-08-09T13:15:04.656Z,97092.56
2022-08-09T13:18:02.947Z,97099.84
2022-08-09T13:20:37.871Z,97091.88
2022-08-09T13:24:17.397Z,97089.88
2022-08-09T13:26:10.313Z,97090.13
2022-08-09T13:28:39.624Z,97081.88
2022-08-09T13:32:15.194Z,97083.34
2022-08-09T13:33:58.242Z,97076.81
2022-08-09T13:36:40.413Z,97075.66
2022-08-09T13:41:19.328Z,97079.53
2022-08-09T13:42:02.836Z,97068.56
2022-08-09T13:44:30.973Z,97080.03
2022-08-09T13:47:29.520Z,97078.25
2022-08-09T13:49:57.420Z,97083.91
2022-08-09T13:52:31.110Z,97076.94
2022-08-09T13:55:04.532Z,97077.56
2022-08-09T13:57:35.498Z,97069.69
2022-08-09T14:00:12.053Z,97069.16
2022-08-09T14:02:42.636Z,96939.09
2022-08-09T14:05:59.404Z,97066.69
2022-08-09T14:08:18.131Z,97070.69
2022-08-09T14:10:56.623Z,97061.28
2022-08-09T14:14:16.368Z,97058.16
2022-08-09T14:16:14.711Z,97071.50
2022-08-09T14:18:45.959Z,97073.44
2022-08-09T14:21:18.873Z,97074.44
2022-08-09T14:23:55.603Z,97069.78
2022-08-09T14:26:31.513Z,97069.41
2022-08-09T14:29:01.126Z,97063.44
2022-08-09T14:31:50.260Z,97054.94
2022-08-09T14:34:32.366Z,97051.56
2022-08-09T14:37:01.367Z,97044.34
2022-08-09T14:39:45.666Z,97053.81
2022-08-09T14:42:29.044Z,97056.59
2022-08-09T14:45:14.853Z,97062.19
2022-08-09T14:47:57.371Z,97051.94
2022-08-09T14:50:27.283Z,97056.72
2022-08-09T14:52:54.980Z,97056.09
2022-08-09T14:55:32.671Z,97058.13
2022-08-09T14:58:03.313Z,97057.44
2022-08-09T15:00:31.558Z,97050.16
2022-08-09T15:03:00.233Z,97051.41
2022-08-09T15:05:29.560Z,97050.94
2022-08-09T15:07:58.290Z,97047.13
2022-08-09T15:10:27.962Z,97043.19
2022-08-09T15:13:03.001Z,97043.91
2022-08-09T15:15:34.288Z,97044.72
2022-08-09T15:18:08.147Z,97047.75
2022-08-09T15:21:56.277Z,97042.44
2022-08-09T15:24:01.742Z,97039.66
2022-08-09T15:26:19.319Z,97043.91
2022-08-09T15:29:04.530Z,97034.59
2022-08-09T15:31:41.296Z,97027.31
2022-08-09T15:34:34.986Z,97041.56
2022-08-09T15:37:05.869Z,97032.47
2022-08-09T15:39:34.484Z,97035.41
2022-08-09T15:42:07.500Z,97033.38
2022-08-09T15:44:35.150Z,97028.50
2022-08-09T15:47:03.297Z,97029.09
2022-08-09T15:49:32.871Z,97029.28
2022-08-09T15:52:03.029Z,97027.75
2022-08-09T15:54:43.067Z,97029.09
2022-08-09T15:57:18.925Z,97021.84
2022-08-09T16:00:01.565Z,97026.78
2022-08-09T16:02:31.298Z,97037.81
2022-08-09T16:05:04.114Z,97036.16
2022-08-09T16:07:39.322Z,97039.09
2022-08-09T16:10:17.241Z,97031.19
2022-08-09T16:13:21.217Z,97033.16
2022-08-09T16:16:04.414Z,97031.97
2022-08-09T16:18:45.320Z,97028.72
2022-08-09T16:21:17.421Z,97019.69
2022-08-09T16:23:55.673Z,97026.47
2022-08-09T16:26:34.689Z,97026.13
2022-08-09T16:29:06.101Z,96856.84
2022-08-09T16:32:20.130Z,96850.13
2022-08-09T16:34:29.080Z,97017.75
2022-08-09T16:36:59.991Z,97019.94
2022-08-09T16:39:28.077Z,97020.09
2022-08-09T16:42:07.583Z,97013.06
2022-08-09T16:44:37.623Z,97022.31
2022-08-09T16:48:38.093Z,97026.88
2022-08-09T16:50:32.009Z,97027.59
2022-08-09T16:52:45.808Z,97031.31
2022-08-09T16:55:18.178Z,97028.72
2022-08-09T16:58:08.928Z,97018.59
2022-08-09T17:00:38.813Z,97020.53
2022-08-09T17:03:21.114Z,97017.31
2022-08-09T17:06:31.183Z,97025.75
2022-08-09T17:08:59.025Z,97008.41
2022-08-09T17:11:40.742Z,97010.50
2022-08-09T17:14:26.017Z,97013.31
2022-08-09T17:17:00.102Z,96795.78
2022-08-09T17:20:05.958Z,97022.13
2022-08-09T17:22:24.991Z,97021.97
2022-08-09T17:25:09.822Z,97018.28
2022-08-09T17:27:38.800Z,97031.56
2022-08-09T17:30:12.897Z,97023.56
2022-08-09T17:32:46.306Z,97031.56
2022-08-09T17:35:14.531Z,97032.59
2022-08-09T17:38:11.869Z,97037.16
2022-08-09T17:40:33.996Z,97026.03
2022-08-09T17:43:10.902Z,97033.38
2022-08-09T17:46:03.012Z,97027.69
2022-08-09T17:48:34.756Z,97034.66
2022-08-09T17:51:17.469Z,97038.47
2022-08-09T17:53:51.780Z,97039.06
2022-08-09T17:56:20.423Z,97042.88
2022-08-09T17:58:48.491Z,97045.00
2022-08-09T18:01:22.585Z,97046.44
2022-08-09T18:03:55.792Z,97049.66
2022-08-09T18:06:32.267Z,97050.63
2022-08-09T18:09:03.159Z,97049.00
2022-08-09T18:12:05.889Z,97051.78
2022-08-09T18:14:23.874Z,97046.88
2022-08-09T18:16:53.007Z,97051.63
2022-08-09T18:20:57.442Z,97042.69
2022-08-09T18:22:13.301Z,97044.38
2022-08-09T18:24:45.696Z,97051.56
2022-08-09T18:27:49.222Z,97054.97
2022-08-09T18:30:40.711Z,97064.22
2022-08-09T18:32:54.680Z,97059.44
2022-08-09T18:35:59.962Z,97064.72
2022-08-09T18:38:22.802Z,97063.81
2022-08-09T18:40:53.632Z,97065.88
2022-08-09T18:43:21.406Z,97069.72
2022-08-09T18:46:49.011Z,97068.84
2022-08-09T18:48:38.616Z,97071.88
2022-08-09T18:51:11.450Z,97077.25
2022-08-09T18:53:59.603Z,97082.94
2022-08-09T18:56:28.563Z,97077.34
2022-08-09T18:58:56.786Z,97088.00
2022-08-09T19:01:24.574Z,97084.41
2022-08-09T19:04:01.277Z,97097.34
2022-08-09T19:06:36.223Z,97099.75
2022-08-09T19:09:07.019Z,97093.34
2022-08-09T19:11:37.881Z,97104.19
2022-08-09T19:14:06.810Z,97122.72
2022-08-09T19:16:50.135Z,97103.28
2022-08-09T19:19:25.422Z,97103.75
2022-08-09T19:22:06.686Z,97105.13
2022-08-09T19:24:39.577Z,97116.13
2022-08-09T19:27:28.971Z,97116.00
2022-08-09T19:30:21.523Z,97113.06
2022-08-09T19:32:45.240Z,97109.09
2022-08-09T19:35:13.288Z,97112.38
2022-08-09T19:37:55.880Z,97117.44
2022-08-09T19:40:33.145Z,97116.44
2022-08-09T19:43:05.248Z,97116.66
2022-08-09T19:45:40.534Z,97146.66
2022-08-09T19:48:10.648Z,97117.47
2022-08-09T19:50:49.298Z,97121.09
2022-08-09T19:53:21.062Z,97115.09
2022-08-09T19:56:03.332Z,97116.63
2022-08-09T19:58:35.710Z,97122.75
2022-08-09T20:01:04.050Z,97122.06
2022-08-09T20:04:26.567Z,97124.22
2022-08-09T20:06:22.537Z,97121.59
2022-08-09T20:08:56.619Z,97124.41
2022-08-09T20:11:25.811Z,97129.03
2022-08-09T20:13:56.926Z,97127.91
2022-08-09T20:16:39.063Z,97119.66
2022-08-09T20:19:49.544Z,97120.25
2022-08-09T20:22:08.977Z,97120.47
2022-08-09T20:24:40.702Z,97119.56
2022-08-09T20:27:08.932Z,97122.03
2022-08-09T20:29:39.729Z,97120.22
2022-08-09T20:32:28.611Z,97118.19
2022-08-09T20:34:55.831Z,97123.31
2022-08-09T20:37:24.083Z,97122.88
2022-08-09T20:40:15.151Z,97123.72
2022-08-09T20:42:46.539Z,97117.19
2022-08-09T20:45:56.807Z,97125.59
2022-08-09T20:48:21.317Z,97122.88
2022-08-09T20:50:55.814Z,97135.72
2022-08-09T20:53:35.418Z,97127.53
2022-08-09T20:56:20.557Z,97132.44
2022-08-09T20:58:50.050Z,97135.63
2022-08-09T21:01:35.174Z,97131.13
2022-08-09T21:05:53.562Z,97141.84
2022-08-09T21:06:56.463Z,97133.50
2022-08-09T21:09:41.850Z,97136.00
2022-08-09T21:14:51.462Z,97133.34
2022-08-09T21:18:11.922Z,97146.56
2022-08-09T21:20:26.426Z,97140.09
2022-08-09T21:22:55.771Z,97139.03
2022-08-09T21:25:44.356Z,97145.25
2022-08-09T21:28:34.129Z,97140.75
2022-08-09T21:31:17.532Z,97142.56
2022-08-09T21:33:50.469Z,97145.00
2022-08-09T21:36:25.765Z,97144.25
2022-08-09T21:38:57.561Z,97138.94
2022-08-09T21:42:06.101Z,97136.44
2022-08-09T21:44:34.488Z,97142.59
2022-08-09T21:47:03.850Z,96956.09
2022-08-09T21:49:40.149Z,97134.00
2022-08-09T21:52:14.791Z,97135.84
2022-08-09T21:54:46.313Z,96926.84
2022-08-09T21:57:36.999Z,97139.41
2022-08-09T22:00:12.011Z,97139.22
2022-08-09T22:02:43.107Z,97140.84
2022-08-09T22:05:22.949Z,97149.00
2022-08-09T22:07:54.172Z,97139.00
2022-08-09T22:10:23.956Z,97141.38
2022-08-09T22:12:52.968Z,97143.47
2022-08-09T22:15:34.852Z,97143.84
2022-08-09T22:18:03.351Z,97140.97
2022-08-09T22:20:33.069Z,97138.19
2022-08-09T22:23:00.816Z,97144.03
2022-08-09T22:26:07.453Z,97136.69
2022-08-09T22:28:29.677Z,97138.34
2022-08-09T22:31:04.528Z,97137.69
2022-08-09T22:33:37.547Z,97174.47
2022-08-09T22:36:19.417Z,97134.81
2022-08-09T22:38:47.512Z,97136.25
2022-08-09T22:41:15.224Z,97141.56
2022-08-09T22:44:01.845Z,97145.19
2022-08-09T22:48:12.382Z,97139.81
2022-08-09T22:49:21.069Z,97142.28
2022-08-09T22:51:56.809Z,97144.84
2022-08-09T22:54:35.382Z,97136.72
2022-08-09T22:57:03.478Z,97145.69
2022-08-09T22:59:56.800Z,97144.06
2022-08-09T23:02:20.656Z,97140.94
2022-08-09T23:04:53.693Z,97144.38
2022-08-09T23:08:22.380Z,97150.22
2022-08-09T23:10:27.947Z,97153.44
2022-08-09T23:12:55.602Z,97141.09
2022-08-09T23:15:23.347Z,97144.81
2022-08-09T23:17:52.358Z,97141.50
2022-08-09T23:20:19.981Z,97140.88
2022-08-09T23:22:47.623Z,97138.38
2022-08-09T23:25:15.376Z,97137.75
2022-08-09T23:28:14.829Z,97140.94
2022-08-09T23:30:33.143Z,97140.94
2022-08-09T23:33:05.905Z,97134.88
2022-08-09T23:36:05.067Z,97139.16
2022-08-09T23:38:22.483Z,97128.06
2022-08-09T23:40:54.185Z,97129.91
2022-08-09T23:43:22.149Z,97125.44
2022-08-09T23:45:49.874Z,97130.34
2022-08-09T23:48:19.631Z,97135.06
2022-08-09T23:50:47.468Z,97128.09
2022-08-09T23:53:15.285Z,97123.34
2022-08-09T23:56:01.249Z,97129.94
2022-08-09T23:58:35.939Z,97118.13
